<?xml version="1.0" encoding="UTF-8" standalone="no" ?>
<gpx xmlns="http://www.topografix.com/GPX/1/1" xmlns:xsi="http://www.w3.org/2001/XMLSchema-instance" xsi:schemaLocation="http://www.topografix.com/GPX/1/1 http://www.topografix.com/GPX/1/1/gpx.xsd" version="1.1" creator="VisuGPX - https://www.visugpx.com">
  <metadata>
    <name>Stevenson Samedi 17 Septembre</name>
    <desc><![CDATA[Florac - Cassagnas après une journée de pause à Florac
couvert, légère pluie le soir.
]]></desc>
  </metadata>
  <trk>
    <name><![CDATA[ACTIVE LOG130000]]></name>
    <trkseg>
      <trkpt lat="44.27787" lon="3.71435">
        <ele>677.141</ele>
        <time>2011-09-17T11:00:00Z</time>
      </trkpt>
      <trkpt lat="44.2779" lon="3.71457">
        <ele>677.643</ele>
        <time>2011-09-17T11:00:10Z</time>
      </trkpt>
      <trkpt lat="44.27802" lon="3.71476">
        <ele>677.825</ele>
        <time>2011-09-17T11:00:20Z</time>
      </trkpt>
      <trkpt lat="44.27805" lon="3.7149">
        <ele>678.119</ele>
        <time>2011-09-17T11:00:30Z</time>
      </trkpt>
      <trkpt lat="44.27809" lon="3.71501">
        <ele>678.224</ele>
        <time>2011-09-17T11:00:40Z</time>
      </trkpt>
      <trkpt lat="44.27811" lon="3.71519">
        <ele>678.401</ele>
        <time>2011-09-17T11:00:50Z</time>
      </trkpt>
      <trkpt lat="44.27815" lon="3.71537">
        <ele>678.549</ele>
        <time>2011-09-17T11:01:00Z</time>
      </trkpt>
      <trkpt lat="44.27813" lon="3.71551">
        <ele>678.504</ele>
        <time>2011-09-17T11:01:10Z</time>
      </trkpt>
      <trkpt lat="44.27806" lon="3.71567">
        <ele>679.107</ele>
        <time>2011-09-17T11:01:20Z</time>
      </trkpt>
      <trkpt lat="44.27808" lon="3.71579">
        <ele>679.191</ele>
        <time>2011-09-17T11:01:30Z</time>
      </trkpt>
      <trkpt lat="44.27802" lon="3.71595">
        <ele>679.078</ele>
        <time>2011-09-17T11:01:40Z</time>
      </trkpt>
      <trkpt lat="44.27802" lon="3.71618">
        <ele>679.207</ele>
        <time>2011-09-17T11:01:50Z</time>
      </trkpt>
      <trkpt lat="44.27795" lon="3.71633">
        <ele>679.485</ele>
        <time>2011-09-17T11:02:00Z</time>
      </trkpt>
      <trkpt lat="44.27784" lon="3.71655">
        <ele>680.055</ele>
        <time>2011-09-17T11:02:10Z</time>
      </trkpt>
      <trkpt lat="44.27785" lon="3.71671">
        <ele>680.177</ele>
        <time>2011-09-17T11:02:20Z</time>
      </trkpt>
      <trkpt lat="44.27788" lon="3.71689">
        <ele>680.639</ele>
        <time>2011-09-17T11:02:30Z</time>
      </trkpt>
      <trkpt lat="44.27787" lon="3.71711">
        <ele>680.164</ele>
        <time>2011-09-17T11:02:40Z</time>
      </trkpt>
      <trkpt lat="44.27785" lon="3.71729">
        <ele>680.645</ele>
        <time>2011-09-17T11:02:50Z</time>
      </trkpt>
      <trkpt lat="44.27783" lon="3.71744">
        <ele>680.951</ele>
        <time>2011-09-17T11:03:00Z</time>
      </trkpt>
      <trkpt lat="44.27786" lon="3.71762">
        <ele>681.192</ele>
        <time>2011-09-17T11:03:10Z</time>
      </trkpt>
      <trkpt lat="44.27787" lon="3.71781">
        <ele>681.559</ele>
        <time>2011-09-17T11:03:20Z</time>
      </trkpt>
      <trkpt lat="44.27791" lon="3.71796">
        <ele>681.791</ele>
        <time>2011-09-17T11:03:30Z</time>
      </trkpt>
      <trkpt lat="44.27784" lon="3.71816">
        <ele>681.947</ele>
        <time>2011-09-17T11:03:40Z</time>
      </trkpt>
      <trkpt lat="44.2778" lon="3.71833">
        <ele>681.947</ele>
        <time>2011-09-17T11:03:50Z</time>
      </trkpt>
      <trkpt lat="44.27776" lon="3.71851">
        <ele>681.942</ele>
        <time>2011-09-17T11:04:00Z</time>
      </trkpt>
      <trkpt lat="44.27781" lon="3.71864">
        <ele>681.855</ele>
        <time>2011-09-17T11:04:10Z</time>
      </trkpt>
      <trkpt lat="44.27778" lon="3.71879">
        <ele>681.884</ele>
        <time>2011-09-17T11:04:20Z</time>
      </trkpt>
      <trkpt lat="44.27778" lon="3.71894">
        <ele>682.196</ele>
        <time>2011-09-17T11:04:30Z</time>
      </trkpt>
      <trkpt lat="44.2777" lon="3.71924">
        <ele>682.196</ele>
        <time>2011-09-17T11:04:40Z</time>
      </trkpt>
      <trkpt lat="44.2777" lon="3.71941">
        <ele>682.613</ele>
        <time>2011-09-17T11:04:50Z</time>
      </trkpt>
      <trkpt lat="44.27778" lon="3.71958">
        <ele>682.661</ele>
        <time>2011-09-17T11:05:00Z</time>
      </trkpt>
      <trkpt lat="44.27789" lon="3.71973">
        <ele>683.12</ele>
        <time>2011-09-17T11:05:10Z</time>
      </trkpt>
      <trkpt lat="44.27788" lon="3.7199">
        <ele>683.136</ele>
        <time>2011-09-17T11:05:20Z</time>
      </trkpt>
      <trkpt lat="44.27782" lon="3.72011">
        <ele>683.453</ele>
        <time>2011-09-17T11:05:30Z</time>
      </trkpt>
      <trkpt lat="44.27777" lon="3.72026">
        <ele>683.43</ele>
        <time>2011-09-17T11:05:40Z</time>
      </trkpt>
      <trkpt lat="44.27776" lon="3.72038">
        <ele>683.757</ele>
        <time>2011-09-17T11:05:50Z</time>
      </trkpt>
      <trkpt lat="44.2778" lon="3.72052">
        <ele>683.609</ele>
        <time>2011-09-17T11:06:00Z</time>
      </trkpt>
      <trkpt lat="44.27781" lon="3.72067">
        <ele>684.035</ele>
        <time>2011-09-17T11:06:10Z</time>
      </trkpt>
      <trkpt lat="44.27786" lon="3.72082">
        <ele>683.934</ele>
        <time>2011-09-17T11:06:20Z</time>
      </trkpt>
      <trkpt lat="44.27792" lon="3.72099">
        <ele>684.317</ele>
        <time>2011-09-17T11:06:30Z</time>
      </trkpt>
      <trkpt lat="44.27795" lon="3.72119">
        <ele>684.354</ele>
        <time>2011-09-17T11:06:40Z</time>
      </trkpt>
      <trkpt lat="44.27796" lon="3.72137">
        <ele>685.16</ele>
        <time>2011-09-17T11:06:50Z</time>
      </trkpt>
      <trkpt lat="44.278" lon="3.72152">
        <ele>684.925</ele>
        <time>2011-09-17T11:07:00Z</time>
      </trkpt>
      <trkpt lat="44.27802" lon="3.72169">
        <ele>684.885</ele>
        <time>2011-09-17T11:07:10Z</time>
      </trkpt>
      <trkpt lat="44.27796" lon="3.72187">
        <ele>684.864</ele>
        <time>2011-09-17T11:07:20Z</time>
      </trkpt>
      <trkpt lat="44.278" lon="3.72203">
        <ele>685.224</ele>
        <time>2011-09-17T11:07:30Z</time>
      </trkpt>
      <trkpt lat="44.278" lon="3.72221">
        <ele>684.983</ele>
        <time>2011-09-17T11:07:40Z</time>
      </trkpt>
      <trkpt lat="44.27803" lon="3.72237">
        <ele>685.267</ele>
        <time>2011-09-17T11:07:50Z</time>
      </trkpt>
      <trkpt lat="44.27803" lon="3.72254">
        <ele>685.024</ele>
        <time>2011-09-17T11:08:00Z</time>
      </trkpt>
      <trkpt lat="44.27803" lon="3.7227">
        <ele>684.974</ele>
        <time>2011-09-17T11:08:10Z</time>
      </trkpt>
      <trkpt lat="44.27794" lon="3.72291">
        <ele>685.175</ele>
        <time>2011-09-17T11:08:20Z</time>
      </trkpt>
      <trkpt lat="44.27788" lon="3.72309">
        <ele>685.188</ele>
        <time>2011-09-17T11:08:30Z</time>
      </trkpt>
      <trkpt lat="44.2779" lon="3.7232">
        <ele>685.323</ele>
        <time>2011-09-17T11:08:40Z</time>
      </trkpt>
      <trkpt lat="44.27787" lon="3.72335">
        <ele>685.5</ele>
        <time>2011-09-17T11:08:50Z</time>
      </trkpt>
      <trkpt lat="44.27788" lon="3.72348">
        <ele>686.753</ele>
        <time>2011-09-17T11:09:00Z</time>
      </trkpt>
      <trkpt lat="44.27777" lon="3.72362">
        <ele>686.288</ele>
        <time>2011-09-17T11:09:10Z</time>
      </trkpt>
      <trkpt lat="44.27771" lon="3.72371">
        <ele>686.237</ele>
        <time>2011-09-17T11:09:20Z</time>
      </trkpt>
      <trkpt lat="44.27756" lon="3.72382">
        <ele>686.2</ele>
        <time>2011-09-17T11:09:30Z</time>
      </trkpt>
      <trkpt lat="44.27749" lon="3.72389">
        <ele>686.251</ele>
        <time>2011-09-17T11:09:40Z</time>
      </trkpt>
      <trkpt lat="44.27736" lon="3.72399">
        <ele>686.816</ele>
        <time>2011-09-17T11:09:50Z</time>
      </trkpt>
      <trkpt lat="44.27724" lon="3.72407">
        <ele>686.528</ele>
        <time>2011-09-17T11:10:00Z</time>
      </trkpt>
      <trkpt lat="44.27707" lon="3.72411">
        <ele>686.837</ele>
        <time>2011-09-17T11:10:10Z</time>
      </trkpt>
      <trkpt lat="44.27693" lon="3.72422">
        <ele>686.824</ele>
        <time>2011-09-17T11:10:20Z</time>
      </trkpt>
      <trkpt lat="44.27683" lon="3.72439">
        <ele>687.144</ele>
        <time>2011-09-17T11:10:30Z</time>
      </trkpt>
      <trkpt lat="44.27673" lon="3.72449">
        <ele>687.68</ele>
        <time>2011-09-17T11:10:40Z</time>
      </trkpt>
      <trkpt lat="44.27654" lon="3.72466">
        <ele>687.701</ele>
        <time>2011-09-17T11:10:50Z</time>
      </trkpt>
      <trkpt lat="44.27627" lon="3.72489">
        <ele>687.907</ele>
        <time>2011-09-17T11:11:00Z</time>
      </trkpt>
      <trkpt lat="44.27618" lon="3.72497">
        <ele>687.836</ele>
        <time>2011-09-17T11:11:10Z</time>
      </trkpt>
      <trkpt lat="44.27612" lon="3.72499">
        <ele>688.444</ele>
        <time>2011-09-17T11:11:20Z</time>
      </trkpt>
      <trkpt lat="44.27597" lon="3.72517">
        <ele>688.46</ele>
        <time>2011-09-17T11:11:30Z</time>
      </trkpt>
      <trkpt lat="44.27588" lon="3.7253">
        <ele>688.65</ele>
        <time>2011-09-17T11:11:40Z</time>
      </trkpt>
      <trkpt lat="44.27585" lon="3.72533">
        <ele>688.515</ele>
        <time>2011-09-17T11:11:50Z</time>
      </trkpt>
      <trkpt lat="44.27581" lon="3.72541">
        <ele>688.528</ele>
        <time>2011-09-17T11:12:00Z</time>
      </trkpt>
      <trkpt lat="44.27562" lon="3.72563">
        <ele>689.107</ele>
        <time>2011-09-17T11:12:10Z</time>
      </trkpt>
      <trkpt lat="44.27556" lon="3.72567">
        <ele>689.073</ele>
        <time>2011-09-17T11:12:20Z</time>
      </trkpt>
      <trkpt lat="44.27552" lon="3.72577">
        <ele>689.263</ele>
        <time>2011-09-17T11:12:30Z</time>
      </trkpt>
      <trkpt lat="44.27548" lon="3.72582">
        <ele>690.114</ele>
        <time>2011-09-17T11:12:40Z</time>
      </trkpt>
      <trkpt lat="44.27529" lon="3.7261">
        <ele>690.634</ele>
        <time>2011-09-17T11:12:50Z</time>
      </trkpt>
      <trkpt lat="44.27519" lon="3.72625">
        <ele>690.164</ele>
        <time>2011-09-17T11:13:00Z</time>
      </trkpt>
      <trkpt lat="44.27514" lon="3.72635">
        <ele>690.669</ele>
        <time>2011-09-17T11:13:10Z</time>
      </trkpt>
      <trkpt lat="44.27509" lon="3.72645">
        <ele>690.919</ele>
        <time>2011-09-17T11:13:20Z</time>
      </trkpt>
      <trkpt lat="44.27506" lon="3.72657">
        <ele>691.157</ele>
        <time>2011-09-17T11:13:30Z</time>
      </trkpt>
      <trkpt lat="44.27503" lon="3.72664">
        <ele>691.229</ele>
        <time>2011-09-17T11:13:40Z</time>
      </trkpt>
      <trkpt lat="44.27502" lon="3.72683">
        <ele>691.781</ele>
        <time>2011-09-17T11:13:50Z</time>
      </trkpt>
      <trkpt lat="44.27499" lon="3.72692">
        <ele>691.654</ele>
        <time>2011-09-17T11:14:00Z</time>
      </trkpt>
      <trkpt lat="44.27491" lon="3.72699">
        <ele>692.132</ele>
        <time>2011-09-17T11:14:10Z</time>
      </trkpt>
      <trkpt lat="44.2749" lon="3.72713">
        <ele>691.625</ele>
        <time>2011-09-17T11:14:20Z</time>
      </trkpt>
      <trkpt lat="44.2748" lon="3.72738">
        <ele>692.169</ele>
        <time>2011-09-17T11:14:30Z</time>
      </trkpt>
      <trkpt lat="44.27475" lon="3.72754">
        <ele>692.428</ele>
        <time>2011-09-17T11:14:40Z</time>
      </trkpt>
      <trkpt lat="44.27474" lon="3.72766">
        <ele>692.497</ele>
        <time>2011-09-17T11:14:50Z</time>
      </trkpt>
      <trkpt lat="44.27475" lon="3.72783">
        <ele>692.777</ele>
        <time>2011-09-17T11:15:00Z</time>
      </trkpt>
      <trkpt lat="44.27474" lon="3.72799">
        <ele>692.888</ele>
        <time>2011-09-17T11:15:10Z</time>
      </trkpt>
      <trkpt lat="44.27473" lon="3.72822">
        <ele>693.115</ele>
        <time>2011-09-17T11:15:20Z</time>
      </trkpt>
      <trkpt lat="44.2747" lon="3.72838">
        <ele>693.591</ele>
        <time>2011-09-17T11:15:30Z</time>
      </trkpt>
      <trkpt lat="44.27469" lon="3.72857">
        <ele>693.3</ele>
        <time>2011-09-17T11:15:40Z</time>
      </trkpt>
      <trkpt lat="44.27469" lon="3.72874">
        <ele>693.165</ele>
        <time>2011-09-17T11:15:50Z</time>
      </trkpt>
      <trkpt lat="44.27467" lon="3.72892">
        <ele>693.023</ele>
        <time>2011-09-17T11:16:00Z</time>
      </trkpt>
      <trkpt lat="44.27464" lon="3.7291">
        <ele>693.094</ele>
        <time>2011-09-17T11:16:10Z</time>
      </trkpt>
      <trkpt lat="44.27466" lon="3.72925">
        <ele>693.237</ele>
        <time>2011-09-17T11:16:20Z</time>
      </trkpt>
      <trkpt lat="44.27462" lon="3.72942">
        <ele>693.388</ele>
        <time>2011-09-17T11:16:30Z</time>
      </trkpt>
      <trkpt lat="44.27456" lon="3.72957">
        <ele>693.19</ele>
        <time>2011-09-17T11:16:40Z</time>
      </trkpt>
      <trkpt lat="44.27449" lon="3.72966">
        <ele>693.204</ele>
        <time>2011-09-17T11:16:50Z</time>
      </trkpt>
      <trkpt lat="44.27437" lon="3.72976">
        <ele>692.76</ele>
        <time>2011-09-17T11:17:00Z</time>
      </trkpt>
      <trkpt lat="44.27428" lon="3.72982">
        <ele>692.849</ele>
        <time>2011-09-17T11:17:10Z</time>
      </trkpt>
      <trkpt lat="44.27414" lon="3.72987">
        <ele>693.048</ele>
        <time>2011-09-17T11:17:20Z</time>
      </trkpt>
      <trkpt lat="44.27404" lon="3.72991">
        <ele>693.642</ele>
        <time>2011-09-17T11:17:30Z</time>
      </trkpt>
      <trkpt lat="44.27399" lon="3.72987">
        <ele>693.568</ele>
        <time>2011-09-17T11:17:40Z</time>
      </trkpt>
      <trkpt lat="44.27389" lon="3.7298">
        <ele>692.353</ele>
        <time>2011-09-17T11:17:50Z</time>
      </trkpt>
      <trkpt lat="44.27376" lon="3.72979">
        <ele>691.267</ele>
        <time>2011-09-17T11:18:00Z</time>
      </trkpt>
      <trkpt lat="44.27366" lon="3.72973">
        <ele>690.622</ele>
        <time>2011-09-17T11:18:10Z</time>
      </trkpt>
      <trkpt lat="44.27354" lon="3.72974">
        <ele>689.885</ele>
        <time>2011-09-17T11:18:20Z</time>
      </trkpt>
      <trkpt lat="44.2734" lon="3.72971">
        <ele>688.188</ele>
        <time>2011-09-17T11:18:30Z</time>
      </trkpt>
      <trkpt lat="44.27331" lon="3.7297">
        <ele>687.528</ele>
        <time>2011-09-17T11:18:40Z</time>
      </trkpt>
      <trkpt lat="44.2732" lon="3.72968">
        <ele>687.731</ele>
        <time>2011-09-17T11:18:50Z</time>
      </trkpt>
      <trkpt lat="44.27305" lon="3.72966">
        <ele>687.824</ele>
        <time>2011-09-17T11:19:00Z</time>
      </trkpt>
      <trkpt lat="44.27299" lon="3.72963">
        <ele>688.154</ele>
        <time>2011-09-17T11:19:10Z</time>
      </trkpt>
      <trkpt lat="44.27288" lon="3.72958">
        <ele>688.009</ele>
        <time>2011-09-17T11:19:20Z</time>
      </trkpt>
      <trkpt lat="44.27273" lon="3.72962">
        <ele>687.906</ele>
        <time>2011-09-17T11:19:30Z</time>
      </trkpt>
      <trkpt lat="44.27257" lon="3.72982">
        <ele>687.723</ele>
        <time>2011-09-17T11:19:40Z</time>
      </trkpt>
      <trkpt lat="44.27238" lon="3.72987">
        <ele>687.771</ele>
        <time>2011-09-17T11:19:50Z</time>
      </trkpt>
      <trkpt lat="44.27224" lon="3.72991">
        <ele>688.247</ele>
        <time>2011-09-17T11:20:00Z</time>
      </trkpt>
      <trkpt lat="44.27212" lon="3.72998">
        <ele>688.529</ele>
        <time>2011-09-17T11:20:10Z</time>
      </trkpt>
      <trkpt lat="44.27195" lon="3.73004">
        <ele>688.587</ele>
        <time>2011-09-17T11:20:20Z</time>
      </trkpt>
      <trkpt lat="44.2718" lon="3.73011">
        <ele>688.91</ele>
        <time>2011-09-17T11:20:30Z</time>
      </trkpt>
      <trkpt lat="44.27167" lon="3.73017">
        <ele>688.754</ele>
        <time>2011-09-17T11:20:40Z</time>
      </trkpt>
      <trkpt lat="44.27157" lon="3.73022">
        <ele>689.901</ele>
        <time>2011-09-17T11:20:50Z</time>
      </trkpt>
      <trkpt lat="44.27144" lon="3.73032">
        <ele>689.903</ele>
        <time>2011-09-17T11:21:00Z</time>
      </trkpt>
      <trkpt lat="44.2713" lon="3.73043">
        <ele>689.293</ele>
        <time>2011-09-17T11:21:10Z</time>
      </trkpt>
      <trkpt lat="44.27121" lon="3.7305">
        <ele>690.02</ele>
        <time>2011-09-17T11:21:20Z</time>
      </trkpt>
      <trkpt lat="44.27115" lon="3.73058">
        <ele>689.803</ele>
        <time>2011-09-17T11:21:30Z</time>
      </trkpt>
      <trkpt lat="44.27108" lon="3.73067">
        <ele>690.699</ele>
        <time>2011-09-17T11:21:40Z</time>
      </trkpt>
      <trkpt lat="44.27113" lon="3.73069">
        <ele>692.094</ele>
        <time>2011-09-17T11:21:50Z</time>
      </trkpt>
      <trkpt lat="44.27119" lon="3.73059">
        <ele>692.482</ele>
        <time>2011-09-17T11:22:00Z</time>
      </trkpt>
      <trkpt lat="44.27119" lon="3.73043">
        <ele>692.99</ele>
        <time>2011-09-17T11:22:10Z</time>
      </trkpt>
      <trkpt lat="44.27127" lon="3.73037">
        <ele>693.978</ele>
        <time>2011-09-17T11:22:20Z</time>
      </trkpt>
      <trkpt lat="44.27116" lon="3.73019">
        <ele>694.657</ele>
        <time>2011-09-17T11:22:30Z</time>
      </trkpt>
      <trkpt lat="44.27111" lon="3.73008">
        <ele>694.609</ele>
        <time>2011-09-17T11:22:40Z</time>
      </trkpt>
      <trkpt lat="44.27113" lon="3.73004">
        <ele>694.578</ele>
        <time>2011-09-17T11:22:50Z</time>
      </trkpt>
      <trkpt lat="44.27109" lon="3.72987">
        <ele>694.609</ele>
        <time>2011-09-17T11:23:00Z</time>
      </trkpt>
      <trkpt lat="44.27111" lon="3.72989">
        <ele>694.963</ele>
        <time>2011-09-17T11:23:10Z</time>
      </trkpt>
      <trkpt lat="44.27111" lon="3.73006">
        <ele>694.733</ele>
        <time>2011-09-17T11:23:20Z</time>
      </trkpt>
      <trkpt lat="44.27112" lon="3.73018">
        <ele>694.723</ele>
        <time>2011-09-17T11:23:30Z</time>
      </trkpt>
      <trkpt lat="44.27118" lon="3.73031">
        <ele>694.762</ele>
        <time>2011-09-17T11:23:40Z</time>
      </trkpt>
      <trkpt lat="44.27123" lon="3.73044">
        <ele>694.807</ele>
        <time>2011-09-17T11:23:50Z</time>
      </trkpt>
    </trkseg>
  </trk>
</gpx>